Logo AVAMET
Benvolgut visitant, si us plau, ingressa Recuperar contrasenya
AVAMET paisatges

Inforatge Gata

Dades diàries. Acumulats / Últims 30 dies disponibles

Data Temperatura (°C) Humitat rel. (%) Pressió rel. (hPa) Vent (km/h) Precipitació
Mínima Mitjana Màxima Amplitud
tèrmica
Mínima Mitjana Màxima Mínima Mitjana Màxima Predom. Mitjana Ràfega
màxima
Total
(mm)
Índex-n
Mínima Mitjana Màxima Mínima Mitjana Màxima n
0 a 1
P0 max
mm 5'
Dades mensuals acumulades fins l'últim dia disponible
08/2020 22,7 24,1 25,7 27,6 29,1 31,9 38,9 16,2 39 79 93 1.011 1.013 1.015   6,1 37,0 0,6
Dades anuals acumulades fins l'últim dia disponible
2020 2,3 13,8 25,7 18,1 11,9 23,0 38,9 36,6 18 74 96 1.002 1.018 1.035   6,2 93,3 297,2
Últims 30 dies disponibles
05-08-2020 22,7     26,2     29,2 6,5 67 78 89 1.012 1.013 1.014 SE 7,4 37,0 0,0
04-08-2020 22,9     26,5     29,7 6,8 66 80 92 1.012 1.013 1.014 SSE 7,2 35,4 0,0
03-08-2020 25,1     26,7     29,1 4,0 71 83 90 1.011 1.012 1.014 ENE 4,2 35,4 0,6
02-08-2020 25,7     28,2     32,7 7,0 54 81 92 1.011 1.013 1.015 WNW 7,2 30,6 0,0
01-08-2020 24,1     30,2     38,9 14,8 39 72 93 1.011 1.014 1.015 SE 4,3 32,2 0,0
31-07-2020 23,8     28,7     34,7 10,9 52 67 88 1.013 1.014 1.015 SO 5,9 30,6 0,0
30-07-2020 24,4     27,4     31,6 7,2 57 77 89 1.013 1.015 1.016 WNW 9,2 32,2 0,0
29-07-2020 25,2     27,3     30,3 5,1 65 81 89 1.013 1.014 1.016 WNW 10,1 35,4 0,0
28-07-2020 23,0     28,0     33,3 10,3 42 70 89 1.013 1.014 1.015 WNW 6,4 30,6 0,0
27-07-2020 21,6     27,5     33,9 12,3 32 65 88 1.014 1.016 1.017 W 6,8 30,6 0,0
26-07-2020 21,0     26,3     31,7 10,7 47 75 87 1.013 1.014 1.017 ENE 5,5 30,6 0,0
25-07-2020 21,8     26,9     31,8 10,0 42 67 86 1.012 1.014 1.015 SE 4,5 32,2 0,0
24-07-2020 21,0     26,8     32,5 11,5 42 59 72 1.012 1.013 1.014 SSE 6,0 40,2 0,0
23-07-2020 21,2     27,4     32,8 11,6 35 58 83 1.013 1.015 1.017 ENE 4,7 27,4 0,0
22-07-2020 24,1     26,5     30,3 6,2 51 77 88 1.016 1.017 1.020 WNW 7,7 32,2 0,0
21-07-2020 20,6     25,6     31,1 10,5 51 76 88 1.017 1.018 1.019 W 6,6 27,4 0,0
20-07-2020 21,9     26,0     30,6 8,7 56 74 87 1.015 1.016 1.018 SE 4,8 30,6 0,0
19-07-2020 20,8     25,8     30,1 9,3 47 70 89 1.013 1.015 1.016 SSE 10,8 53,1 0,0
18-07-2020 20,4     25,0     28,4 8,0 60 77 91 1.013 1.015 1.017 SSE 7,7 38,6 0,0
17-07-2020 20,1     24,5     27,7 7,6 67 78 89 1.014 1.016 1.017 SE 7,1 37,0 0,0
16-07-2020 19,2     24,7     28,9 9,7 58 72 84 1.016 1.018 1.019 ENE 6,4 32,2 0,0
15-07-2020 18,9     24,3     29,9 11,0 42 73 91 1.015 1.016 1.018 ENE 6,0 29,0 0,0
14-07-2020 22,6     24,9     28,9 6,3 57 77 89 1.014 1.016 1.018 W 4,8 32,2 0,6
13-07-2020 22,1     25,8     29,5 7,4 53 74 88 1.016 1.017 1.019 WNW 6,9 29,0 0,0
12-07-2020 22,0     25,3     29,8 7,8 58 78 88 1.016 1.018 1.020 ENE 5,3 29,0 1,2 0,26 0,60
11-07-2020 23,8     25,9     29,1 5,3 69 78 87 1.014 1.016 1.018 WNW 8,7 30,6 0,0
10-07-2020 22,9     26,3     31,3 8,4 53 76 88 1.013 1.014 1.016 WNW 6,6 29,0 0,0
09-07-2020 23,8     26,6     30,6 6,8 49 68 87 1.013 1.015 1.018 ENE 6,6 33,8 0,0
08-07-2020 21,1     25,7     30,5 9,4 44 75 90 1.015 1.016 1.018 SE 4,7 32,2 0,0
07-07-2020 21,1     26,3     31,2 10,1 38 66 83 1.013 1.015 1.016 SSE 6,6 41,8 0,0
Últims 13 mesos disponibles
07/2020 18,9 21,9 25,2 26,1 27,4 30,7 34,7 15,8 58 73 84 1.011 1.016 1.020 WNW 6,7 53,1 6,0
06/2020 15,1 18,2 21,4 23,0 21,7 27,9 32,3 17,2 46 72 85 1.005 1.014 1.021 SSE 6,3 53,1 25,6
05/2020 12,3 15,9 21,2 20,8 19,8 26,1 30,8 18,5 49 69 83 1.005 1.017 1.027 W 6,8 45,1 20,2
04/2020 8,1 12,0 16,6 15,6 14,7 19,8 26,8 18,7 53 78 94 1.006 1.016 1.026 WNW 5,7 46,7 44,2
03/2020 6,6 10,7 16,7 14,4 11,9 18,3 25,7 19,1 45 73 92 1.007 1.017 1.026 WNW 7,6 72,4 58,2
02/2020 5,1 9,2 13,7 14,3 14,4 20,3 26,7 21,6 45 73 90 1.014 1.025 1.033 W 4,4 45,1 2,6
01/2020 2,3 7,0 15,6 11,1 13,3 16,5 23,0 20,7 58 78 92 1.015 1.025 1.033 W 6,0 93,3 139,8
12/2019 5,8 9,9 16,9 13,6 13,5 18,3 24,6 18,8 51 75 90 1.004 1.019 1.033 W 6,6 86,9 162,6
11/2019 5,6 11,8 19,3 15,6 14,7 19,7 27,1 21,5 45 60 84 999 1.011 1.018 WNW 8,9 66,0 11,8
10/2019 9,6 15,3 18,6 19,7 16,7 24,9 31,8 22,2 49 74 87 1.008 1.016 1.022 W 4,8 53,1 69,8
09/2019 14,6 19,3 23,0 23,4 23,1 28,0 33,2 18,6 60 78 86 1.010 1.017 1.022 SSO 5,4 64,8 128,6
08/2019 18,4 21,8 26,6 26,3 27,1 31,4 37,3 18,9 52 72 82 1.010 1.015 1.019 S 6,0 45,0 21,8
07/2019 19,8 22,1 27,2 26,7 28,8 31,8 38,2 18,4 46 66 79 1.005 1.014 1.021 SSO 6,0 58,0 2,0
Tots els anys disponibles
2019 1,6 13,8 27,2 18,2 10,9 23,1 38,2 36,6 0 69 93 0 1.011 1.034 SSO 6,6 86,9 724,2
2018 2,3 14,0 26,9 18,2 7,6 22,9 37,1 34,8 34 69 92 993 1.016 1.035 SSO 6,3 74,1 596,2
Temperatura (°C)
Humitat relativa (%)
Velocitat del vent i ràfega màxima (km/h)
Direcció del vent (°)
Pressió (hPa)
Precipitació (mm)
Nota sobre les dades: s'avisa a l'usuari de la provisionalitat i no oficialitat d'aquestes dades
Logo AVAMET blanc
Web allotjada a Sollutia
Llicència de Creative CommonsLa web d'AVAMET i els seus continguts estan subjectes a una llicència de
Reconeixement - No Comercial - Compartir igual
Últimes estacions: Torremocha del Jiloca (Limítrofe/Soci), Orihuela - Arneva (MeteOrihuela), Enguera - Antolí (Soci), Vilamarxant - La Pedrera (Soci), Càlig (Ajuntament Soci), Quesa - Hotel La Rocha (Soci), Agres - Les Eres (Soci) - - -